< Cyclone 197901 1979 Season Cyclone 197903 >
Cyclone 197902 (GRETA)
General InformationTrack Information on Google MapsList of All Images || ResourceGoogle EarthGE AnimationAtom FeedGeoJSON
Detalied Best Track (Time Zone = UTC)
Year Month Day Hour Lat. Long. Pressure (hPa) Wind (kt) Class Image Chart
1979 1 8 11 -13.8 137.2 1000 0 0 Image --
1979 1 8 17 -13.4 137.4 996 0 0 Image --
1979 1 8 23 -13.4 137.8 997 0 0 Image --
1979 1 9 05 -13.3 138.4 995 0 0 Image --
1979 1 9 11 -13.0 139.2 994 0 0 Image --
1979 1 9 17 -12.9 140.0 990 0 0 Image --
1979 1 9 23 -12.7 140.9 986 0 0 Image --
1979 1 10 02 -12.7 141.5 986 0 0 Image --
1979 1 10 05 -12.7 142.1 986 0 0 Image --
1979 1 10 11 -12.9 143.2 990 0 0 Image --
1979 1 10 17 -13.2 143.5 990 0 0 Image --
1979 1 10 23 -13.7 143.7 990 0 0 Image --
1979 1 11 05 -14.4 144.0 992 0 0 Image --
1979 1 11 08 -14.6 144.5 990 0 0 Image --
1979 1 11 11 -14.7 144.7 992 0 0 Image --
1979 1 11 14 -14.9 144.8 992 0 0 Image --
1979 1 11 17 -15.1 144.8 994 0 0 Image --
1979 1 11 20 -15.2 144.5 996 0 0 Image --
1979 1 11 23 -15.4 144.0 997 0 0 Image --
1979 1 12 05 -16.0 142.3 996 0 0 Image --
1979 1 12 07 -16.2 141.5 996 0 0 Image --
1979 1 12 11 -16.6 140.0 997 0 0 Image --
1979 1 12 14 -16.9 139.3 996 0 0 Image --
1979 1 12 17 -17.2 139.3 996 0 0 Image --
1979 1 12 23 -17.4 140.0 997 0 0 Image --
1979 1 13 02 -17.6 139.8 997 0 0 Image --
1979 1 13 05 -17.7 139.3 995 0 0 Image --
< Cyclone 197901 1979 Season Cyclone 197903 >

Help